sensor_id;sensor_type;location;lat;lon;timestamp;temperature;humidity
64226;DHT22;50545;56.064;26.178;2023-04-02T00:02:30;3.00;99.90
64226;DHT22;50545;56.064;26.178;2023-04-02T00:07:52;3.00;99.90
64226;DHT22;50545;56.064;26.178;2023-04-02T00:10:33;3.00;99.90
64226;DHT22;50545;56.064;26.178;2023-04-02T00:13:45;3.00;99.90
64226;DHT22;50545;56.064;26.178;2023-04-02T00:15:55;3.00;99.90
64226;DHT22;50545;56.064;26.178;2023-04-02T00:18:24;3.00;99.90
64226;DHT22;50545;56.064;26.178;2023-04-02T00:20:59;3.00;99.90
64226;DHT22;50545;56.064;26.178;2023-04-02T00:23:29;3.00;99.90
64226;DHT22;50545;56.064;26.178;2023-04-02T00:25:56;3.00;99.90
64226;DHT22;50545;56.064;26.178;2023-04-02T00:28:23;3.00;99.90
64226;DHT22;50545;56.064;26.178;2023-04-02T00:30:57;3.00;99.90
64226;DHT22;50545;56.064;26.178;2023-04-02T00:33:27;3.00;99.90
64226;DHT22;50545;56.064;26.178;2023-04-02T00:35:56;3.00;99.90
64226;DHT22;50545;56.064;26.178;2023-04-02T00:38:30;3.00;99.90
64226;DHT22;50545;56.064;26.178;2023-04-02T00:41:01;3.00;99.90
64226;DHT22;50545;56.064;26.178;2023-04-02T00:43:35;3.00;99.90
64226;DHT22;50545;56.064;26.178;2023-04-02T00:46:11;3.00;99.90
64226;DHT22;50545;56.064;26.178;2023-04-02T00:48:49;3.00;99.90
64226;DHT22;50545;56.064;26.178;2023-04-02T00:51:52;3.00;99.90
64226;DHT22;50545;56.064;26.178;2023-04-02T00:54:22;3.00;99.90
64226;DHT22;50545;56.064;26.178;2023-04-02T00:56:54;3.00;99.90
64226;DHT22;50545;56.064;26.178;2023-04-02T00:59:31;3.10;99.90
64226;DHT22;50545;56.064;26.178;2023-04-02T01:04:41;3.00;99.90
64226;DHT22;50545;56.064;26.178;2023-04-02T01:07:10;3.00;99.90
64226;DHT22;50545;56.064;26.178;2023-04-02T01:12:12;3.00;99.90
64226;DHT22;50545;56.064;26.178;2023-04-02T01:14:57;3.00;99.90
64226;DHT22;50545;56.064;26.178;2023-04-02T01:17:51;3.00;99.90
64226;DHT22;50545;56.064;26.178;2023-04-02T01:31:16;2.90;99.90
64226;DHT22;50545;56.064;26.178;2023-04-02T01:33:44;2.90;99.90
64226;DHT22;50545;56.064;26.178;2023-04-02T01:36:30;2.90;99.90
64226;DHT22;50545;56.064;26.178;2023-04-02T01:41:45;2.80;99.90
64226;DHT22;50545;56.064;26.178;2023-04-02T01:44:23;2.80;99.90
64226;DHT22;50545;56.064;26.178;2023-04-02T01:46:52;2.70;99.90
64226;DHT22;50545;56.064;26.178;2023-04-02T01:49:21;2.70;99.90
64226;DHT22;50545;56.064;26.178;2023-04-02T01:51:54;2.70;99.90
64226;DHT22;50545;56.064;26.178;2023-04-02T01:54:24;2.70;99.90
64226;DHT22;50545;56.064;26.178;2023-04-02T01:56:55;2.70;99.90
64226;DHT22;50545;56.064;26.178;2023-04-02T01:59:25;2.60;99.90
64226;DHT22;50545;56.064;26.178;2023-04-02T02:02:09;2.60;99.90
64226;DHT22;50545;56.064;26.178;2023-04-02T02:04:38;2.60;99.90
64226;DHT22;50545;56.064;26.178;2023-04-02T02:07:15;2.60;99.90
64226;DHT22;50545;56.064;26.178;2023-04-02T02:09:45;2.60;99.90
64226;DHT22;50545;56.064;26.178;2023-04-02T02:12:13;2.60;99.90
64226;DHT22;50545;56.064;26.178;2023-04-02T02:14:49;2.60;99.90
64226;DHT22;50545;56.064;26.178;2023-04-02T02:17:22;2.60;99.90
64226;DHT22;50545;56.064;26.178;2023-04-02T02:19:55;2.60;99.90
64226;DHT22;50545;56.064;26.178;2023-04-02T02:22:30;2.50;99.90
64226;DHT22;50545;56.064;26.178;2023-04-02T02:25:01;2.50;99.90
64226;DHT22;50545;56.064;26.178;2023-04-02T02:27:36;2.50;99.90
64226;DHT22;50545;56.064;26.178;2023-04-02T02:33:22;2.50;99.90
64226;DHT22;50545;56.064;26.178;2023-04-02T02:35:58;2.40;99.90
64226;DHT22;50545;56.064;26.178;2023-04-02T02:41:24;2.40;99.90
64226;DHT22;50545;56.064;26.178;2023-04-02T02:46:24;2.30;99.90
64226;DHT22;50545;56.064;26.178;2023-04-02T02:48:54;2.30;99.90
64226;DHT22;50545;56.064;26.178;2023-04-02T02:51:43;2.30;99.90
64226;DHT22;50545;56.064;26.178;2023-04-02T02:54:11;2.30;99.90
64226;DHT22;50545;56.064;26.178;2023-04-02T02:56:46;2.30;99.90
64226;DHT22;50545;56.064;26.178;2023-04-02T02:59:15;2.20;99.90
64226;DHT22;50545;56.064;26.178;2023-04-02T03:01:43;2.20;99.90
64226;DHT22;50545;56.064;26.178;2023-04-02T03:04:11;2.20;99.90
64226;DHT22;50545;56.064;26.178;2023-04-02T03:06:41;2.20;99.90
64226;DHT22;50545;56.064;26.178;2023-04-02T03:12:29;2.20;99.90
64226;DHT22;50545;56.064;26.178;2023-04-02T03:15:16;2.20;99.90
64226;DHT22;50545;56.064;26.178;2023-04-02T03:17:54;2.20;99.90
64226;DHT22;50545;56.064;26.178;2023-04-02T03:26:17;2.10;99.90
64226;DHT22;50545;56.064;26.178;2023-04-02T03:28:56;2.10;99.90
64226;DHT22;50545;56.064;26.178;2023-04-02T03:31:31;2.10;99.90
64226;DHT22;50545;56.064;26.178;2023-04-02T03:34:06;2.10;99.90
64226;DHT22;50545;56.064;26.178;2023-04-02T03:36:39;2.00;99.90
64226;DHT22;50545;56.064;26.178;2023-04-02T03:39:36;2.10;99.90
64226;DHT22;50545;56.064;26.178;2023-04-02T03:42:27;2.00;99.90
64226;DHT22;50545;56.064;26.178;2023-04-02T03:45:15;2.00;99.90
64226;DHT22;50545;56.064;26.178;2023-04-02T03:50:43;2.00;99.90
64226;DHT22;50545;56.064;26.178;2023-04-02T03:53:12;2.00;99.90
64226;DHT22;50545;56.064;26.178;2023-04-02T03:55:41;2.00;99.90
64226;DHT22;50545;56.064;26.178;2023-04-02T03:58:51;2.00;99.90
64226;DHT22;50545;56.064;26.178;2023-04-02T04:01:32;1.90;99.90
64226;DHT22;50545;56.064;26.178;2023-04-02T04:04:13;1.90;99.90
64226;DHT22;50545;56.064;26.178;2023-04-02T04:06:45;1.90;99.90
64226;DHT22;50545;56.064;26.178;2023-04-02T04:09:29;1.90;99.90
64226;DHT22;50545;56.064;26.178;2023-04-02T04:15:04;1.90;99.90
64226;DHT22;50545;56.064;26.178;2023-04-02T04:18:02;1.90;99.90
64226;DHT22;50545;56.064;26.178;2023-04-02T04:20:41;1.90;99.90
64226;DHT22;50545;56.064;26.178;2023-04-02T04:23:22;1.90;99.90
64226;DHT22;50545;56.064;26.178;2023-04-02T04:26:00;1.90;99.90
64226;DHT22;50545;56.064;26.178;2023-04-02T04:33:52;1.90;99.90
64226;DHT22;50545;56.064;26.178;2023-04-02T04:36:26;1.90;99.90
64226;DHT22;50545;56.064;26.178;2023-04-02T04:39:05;1.90;99.90
64226;DHT22;50545;56.064;26.178;2023-04-02T04:41:36;1.90;99.90
64226;DHT22;50545;56.064;26.178;2023-04-02T04:44:11;1.90;99.90
64226;DHT22;50545;56.064;26.178;2023-04-02T04:47:09;1.90;99.90
64226;DHT22;50545;56.064;26.178;2023-04-02T04:49:57;1.90;99.90
64226;DHT22;50545;56.064;26.178;2023-04-02T04:52:35;1.90;99.90
64226;DHT22;50545;56.064;26.178;2023-04-02T04:55:21;1.90;99.90
64226;DHT22;50545;56.064;26.178;2023-04-02T04:57:55;1.90;99.90
64226;DHT22;50545;56.064;26.178;2023-04-02T05:00:52;1.90;99.90
64226;DHT22;50545;56.064;26.178;2023-04-02T05:03:25;1.90;99.90
64226;DHT22;50545;56.064;26.178;2023-04-02T05:06:24;1.90;99.90
64226;DHT22;50545;56.064;26.178;2023-04-02T05:08:55;1.90;99.90
64226;DHT22;50545;56.064;26.178;2023-04-02T05:11:39;1.90;99.90
64226;DHT22;50545;56.064;26.178;2023-04-02T05:14:20;1.90;99.90
64226;DHT22;50545;56.064;26.178;2023-04-02T05:19:27;1.90;99.90
64226;DHT22;50545;56.064;26.178;2023-04-02T05:22:01;1.80;99.90
64226;DHT22;50545;56.064;26.178;2023-04-02T05:24:58;1.90;99.90
64226;DHT22;50545;56.064;26.178;2023-04-02T05:33:41;1.80;99.90
64226;DHT22;50545;56.064;26.178;2023-04-02T05:36:17;1.80;99.90
64226;DHT22;50545;56.064;26.178;2023-04-02T05:38:46;1.80;99.90
64226;DHT22;50545;56.064;26.178;2023-04-02T05:46:33;1.80;99.90
64226;DHT22;50545;56.064;26.178;2023-04-02T05:49:03;1.80;99.90
64226;DHT22;50545;56.064;26.178;2023-04-02T05:51:38;1.80;99.90
64226;DHT22;50545;56.064;26.178;2023-04-02T05:54:19;1.80;99.90
64226;DHT22;50545;56.064;26.178;2023-04-02T05:56:52;1.80;99.90
64226;DHT22;50545;56.064;26.178;2023-04-02T05:59:26;1.80;99.90
64226;DHT22;50545;56.064;26.178;2023-04-02T06:02:04;1.80;99.90
64226;DHT22;50545;56.064;26.178;2023-04-02T06:07:23;1.80;99.90
64226;DHT22;50545;56.064;26.178;2023-04-02T06:10:04;1.80;99.90
64226;DHT22;50545;56.064;26.178;2023-04-02T06:12:57;1.80;99.90
64226;DHT22;50545;56.064;26.178;2023-04-02T06:15:31;1.80;99.90
64226;DHT22;50545;56.064;26.178;2023-04-02T06:20:46;1.80;99.90
64226;DHT22;50545;56.064;26.178;2023-04-02T06:23:39;1.80;99.90
64226;DHT22;50545;56.064;26.178;2023-04-02T06:29:00;1.80;99.90
64226;DHT22;50545;56.064;26.178;2023-04-02T06:31:44;1.80;99.90
64226;DHT22;50545;56.064;26.178;2023-04-02T06:34:20;1.80;99.90
64226;DHT22;50545;56.064;26.178;2023-04-02T06:36:49;1.80;99.90
64226;DHT22;50545;56.064;26.178;2023-04-02T06:39:22;1.80;99.90
64226;DHT22;50545;56.064;26.178;2023-04-02T06:42:00;1.70;99.90
64226;DHT22;50545;56.064;26.178;2023-04-02T06:44:31;1.70;99.90
64226;DHT22;50545;56.064;26.178;2023-04-02T06:52:43;1.90;99.90
64226;DHT22;50545;56.064;26.178;2023-04-02T06:55:22;2.00;99.90
64226;DHT22;50545;56.064;26.178;2023-04-02T06:57:52;2.00;99.90
64226;DHT22;50545;56.064;26.178;2023-04-02T07:03:16;2.00;99.90
64226;DHT22;50545;56.064;26.178;2023-04-02T07:05:45;2.10;99.90
64226;DHT22;50545;56.064;26.178;2023-04-02T07:08:13;2.10;99.90
64226;DHT22;50545;56.064;26.178;2023-04-02T07:10:40;2.20;99.90
64226;DHT22;50545;56.064;26.178;2023-04-02T07:13:13;2.30;99.90
64226;DHT22;50545;56.064;26.178;2023-04-02T07:15:41;2.40;99.90
64226;DHT22;50545;56.064;26.178;2023-04-02T07:18:26;2.40;99.90
64226;DHT22;50545;56.064;26.178;2023-04-02T07:20:53;2.50;99.90
64226;DHT22;50545;56.064;26.178;2023-04-02T07:23:21;2.50;99.90
64226;DHT22;50545;56.064;26.178;2023-04-02T07:25:49;2.50;99.90
64226;DHT22;50545;56.064;26.178;2023-04-02T07:28:17;2.60;99.90
64226;DHT22;50545;56.064;26.178;2023-04-02T07:30:46;2.60;99.90
64226;DHT22;50545;56.064;26.178;2023-04-02T07:33:15;2.60;99.90
64226;DHT22;50545;56.064;26.178;2023-04-02T07:35:44;2.60;99.90
64226;DHT22;50545;56.064;26.178;2023-04-02T07:38:11;2.50;99.90
64226;DHT22;50545;56.064;26.178;2023-04-02T07:40:38;2.50;99.90
64226;DHT22;50545;56.064;26.178;2023-04-02T07:43:06;2.50;99.90
64226;DHT22;50545;56.064;26.178;2023-04-02T07:45:33;2.60;99.90
64226;DHT22;50545;56.064;26.178;2023-04-02T07:48:05;2.60;99.90
64226;DHT22;50545;56.064;26.178;2023-04-02T07:50:33;2.70;99.90
64226;DHT22;50545;56.064;26.178;2023-04-02T07:53:00;2.70;99.90
64226;DHT22;50545;56.064;26.178;2023-04-02T07:55:27;2.70;99.90
64226;DHT22;50545;56.064;26.178;2023-04-02T07:57:56;2.70;99.90
64226;DHT22;50545;56.064;26.178;2023-04-02T08:00:27;2.80;99.90
64226;DHT22;50545;56.064;26.178;2023-04-02T08:02:54;2.80;99.90
64226;DHT22;50545;56.064;26.178;2023-04-02T08:05:22;2.80;99.90
64226;DHT22;50545;56.064;26.178;2023-04-02T08:07:54;2.80;99.90
64226;DHT22;50545;56.064;26.178;2023-04-02T08:10:23;2.70;99.90
64226;DHT22;50545;56.064;26.178;2023-04-02T08:12:50;2.70;99.90
64226;DHT22;50545;56.064;26.178;2023-04-02T08:15:18;2.70;99.90
64226;DHT22;50545;56.064;26.178;2023-04-02T08:17:45;2.70;99.90
64226;DHT22;50545;56.064;26.178;2023-04-02T08:20:19;2.70;99.90
64226;DHT22;50545;56.064;26.178;2023-04-02T08:22:47;2.70;99.90
64226;DHT22;50545;56.064;26.178;2023-04-02T08:25:15;2.70;99.90
64226;DHT22;50545;56.064;26.178;2023-04-02T08:27:45;2.60;99.70
64226;DHT22;50545;56.064;26.178;2023-04-02T08:30:13;2.60;99.90
64226;DHT22;50545;56.064;26.178;2023-04-02T08:32:40;2.60;99.30
64226;DHT22;50545;56.064;26.178;2023-04-02T08:35:09;2.70;98.90
64226;DHT22;50545;56.064;26.178;2023-04-02T08:37:37;2.70;99.30
64226;DHT22;50545;56.064;26.178;2023-04-02T08:40:05;2.80;98.60
64226;DHT22;50545;56.064;26.178;2023-04-02T08:43:39;2.90;96.90
64226;DHT22;50545;56.064;26.178;2023-04-02T08:48:19;3.10;96.20
64226;DHT22;50545;56.064;26.178;2023-04-02T08:50:48;3.10;95.30
64226;DHT22;50545;56.064;26.178;2023-04-02T08:53:23;3.20;96.50
64226;DHT22;50545;56.064;26.178;2023-04-02T09:04:11;3.50;93.00
64226;DHT22;50545;56.064;26.178;2023-04-02T09:06:41;3.70;93.70
64226;DHT22;50545;56.064;26.178;2023-04-02T09:09:12;3.90;88.60
64226;DHT22;50545;56.064;26.178;2023-04-02T09:11:45;3.90;88.00
64226;DHT22;50545;56.064;26.178;2023-04-02T09:14:20;4.00;91.10
64226;DHT22;50545;56.064;26.178;2023-04-02T09:16:52;4.10;88.90
64226;DHT22;50545;56.064;26.178;2023-04-02T09:19:22;4.20;90.10
64226;DHT22;50545;56.064;26.178;2023-04-02T09:21:54;4.40;87.80
64226;DHT22;50545;56.064;26.178;2023-04-02T09:24:23;4.50;86.20
64226;DHT22;50545;56.064;26.178;2023-04-02T09:26:50;4.60;85.90
64226;DHT22;50545;56.064;26.178;2023-04-02T09:29:41;4.60;81.50
64226;DHT22;50545;56.064;26.178;2023-04-02T09:32:29;4.70;82.10
64226;DHT22;50545;56.064;26.178;2023-04-02T09:35:17;4.40;81.60
64226;DHT22;50545;56.064;26.178;2023-04-02T09:38:23;4.40;80.80
64226;DHT22;50545;56.064;26.178;2023-04-02T09:43:29;4.30;81.60
64226;DHT22;50545;56.064;26.178;2023-04-02T09:46:03;4.30;82.30
64226;DHT22;50545;56.064;26.178;2023-04-02T09:48:33;4.30;80.00
64226;DHT22;50545;56.064;26.178;2023-04-02T09:51:18;4.40;76.80
64226;DHT22;50545;56.064;26.178;2023-04-02T09:53:49;4.40;74.40
64226;DHT22;50545;56.064;26.178;2023-04-02T09:56:20;4.30;77.00
64226;DHT22;50545;56.064;26.178;2023-04-02T09:59:06;4.30;78.70
64226;DHT22;50545;56.064;26.178;2023-04-02T10:01:35;4.30;80.30
64226;DHT22;50545;56.064;26.178;2023-04-02T10:04:05;4.30;81.30
64226;DHT22;50545;56.064;26.178;2023-04-02T10:06:33;4.40;75.40
64226;DHT22;50545;56.064;26.178;2023-04-02T10:09:32;4.50;76.00
64226;DHT22;50545;56.064;26.178;2023-04-02T10:12:02;4.60;69.50
64226;DHT22;50545;56.064;26.178;2023-04-02T10:14:41;4.70;72.90
64226;DHT22;50545;56.064;26.178;2023-04-02T10:17:21;4.70;69.70
64226;DHT22;50545;56.064;26.178;2023-04-02T10:19:50;4.80;72.80
64226;DHT22;50545;56.064;26.178;2023-04-02T10:22:21;4.90;69.40
64226;DHT22;50545;56.064;26.178;2023-04-02T10:24:49;5.10;69.20
64226;DHT22;50545;56.064;26.178;2023-04-02T10:30:03;5.30;66.20
64226;DHT22;50545;56.064;26.178;2023-04-02T10:32:54;5.10;66.50
64226;DHT22;50545;56.064;26.178;2023-04-02T10:35:41;5.10;65.30
64226;DHT22;50545;56.064;26.178;2023-04-02T10:39:01;5.10;68.00
64226;DHT22;50545;56.064;26.178;2023-04-02T10:41:58;5.20;64.00
64226;DHT22;50545;56.064;26.178;2023-04-02T10:44:23;5.50;66.80
64226;DHT22;50545;56.064;26.178;2023-04-02T10:47:28;5.80;69.50
64226;DHT22;50545;56.064;26.178;2023-04-02T10:50:18;5.90;64.10
64226;DHT22;50545;56.064;26.178;2023-04-02T10:55:28;5.90;62.30
64226;DHT22;50545;56.064;26.178;2023-04-02T10:57:59;5.80;65.60
64226;DHT22;50545;56.064;26.178;2023-04-02T11:00:34;5.80;63.80
64226;DHT22;50545;56.064;26.178;2023-04-02T11:03:09;6.00;62.20
64226;DHT22;50545;56.064;26.178;2023-04-02T11:05:42;6.00;64.80
64226;DHT22;50545;56.064;26.178;2023-04-02T11:08:17;5.90;62.50
64226;DHT22;50545;56.064;26.178;2023-04-02T11:10:51;6.10;63.50
64226;DHT22;50545;56.064;26.178;2023-04-02T11:13:46;6.30;63.90
64226;DHT22;50545;56.064;26.178;2023-04-02T11:16:14;6.50;66.40
64226;DHT22;50545;56.064;26.178;2023-04-02T11:18:50;6.60;58.00
64226;DHT22;50545;56.064;26.178;2023-04-02T11:21:37;6.40;59.20
64226;DHT22;50545;56.064;26.178;2023-04-02T11:24:47;6.40;59.00
64226;DHT22;50545;56.064;26.178;2023-04-02T11:27:19;6.40;61.20
64226;DHT22;50545;56.064;26.178;2023-04-02T11:30:20;6.60;60.70
64226;DHT22;50545;56.064;26.178;2023-04-02T11:32:48;6.70;60.80
64226;DHT22;50545;56.064;26.178;2023-04-02T11:38:00;6.70;53.90
64226;DHT22;50545;56.064;26.178;2023-04-02T11:40:46;6.80;57.40
64226;DHT22;50545;56.064;26.178;2023-04-02T11:48:34;6.90;58.00
64226;DHT22;50545;56.064;26.178;2023-04-02T11:53:51;7.00;57.10
64226;DHT22;50545;56.064;26.178;2023-04-02T11:56:56;7.00;60.60
64226;DHT22;50545;56.064;26.178;2023-04-02T12:02:23;7.00;55.40
64226;DHT22;50545;56.064;26.178;2023-04-02T12:10:27;7.10;54.30
64226;DHT22;50545;56.064;26.178;2023-04-02T12:12:58;6.80;53.50
64226;DHT22;50545;56.064;26.178;2023-04-02T12:15:36;6.70;56.00
64226;DHT22;50545;56.064;26.178;2023-04-02T12:18:16;6.90;54.60
64226;DHT22;50545;56.064;26.178;2023-04-02T12:20:50;7.20;56.10
64226;DHT22;50545;56.064;26.178;2023-04-02T12:23:29;7.10;54.20
64226;DHT22;50545;56.064;26.178;2023-04-02T12:26:01;7.00;54.60
64226;DHT22;50545;56.064;26.178;2023-04-02T12:28:30;7.20;54.50
64226;DHT22;50545;56.064;26.178;2023-04-02T12:33:38;7.00;52.90
64226;DHT22;50545;56.064;26.178;2023-04-02T12:38:56;6.50;55.90
64226;DHT22;50545;56.064;26.178;2023-04-02T12:41:26;6.80;56.50
64226;DHT22;50545;56.064;26.178;2023-04-02T12:43:58;7.00;52.50
64226;DHT22;50545;56.064;26.178;2023-04-02T12:46:25;7.00;53.20
64226;DHT22;50545;56.064;26.178;2023-04-02T12:48:57;6.90;53.40
64226;DHT22;50545;56.064;26.178;2023-04-02T12:51:25;6.80;53.00
64226;DHT22;50545;56.064;26.178;2023-04-02T12:53:54;6.90;53.40
64226;DHT22;50545;56.064;26.178;2023-04-02T12:56:23;7.00;57.70
64226;DHT22;50545;56.064;26.178;2023-04-02T12:58:55;7.40;54.20
64226;DHT22;50545;56.064;26.178;2023-04-02T13:01:28;7.60;51.10
64226;DHT22;50545;56.064;26.178;2023-04-02T13:04:10;7.60;53.10
64226;DHT22;50545;56.064;26.178;2023-04-02T13:06:47;7.50;52.90
64226;DHT22;50545;56.064;26.178;2023-04-02T13:09:32;7.50;49.70
64226;DHT22;50545;56.064;26.178;2023-04-02T13:12:01;7.40;50.20
64226;DHT22;50545;56.064;26.178;2023-04-02T13:14:29;7.30;53.90
64226;DHT22;50545;56.064;26.178;2023-04-02T13:16:56;7.40;52.00
64226;DHT22;50545;56.064;26.178;2023-04-02T13:19:30;7.70;50.30
64226;DHT22;50545;56.064;26.178;2023-04-02T13:22:02;8.00;48.50
64226;DHT22;50545;56.064;26.178;2023-04-02T13:24:31;8.10;49.30
64226;DHT22;50545;56.064;26.178;2023-04-02T13:27:01;7.90;49.20
64226;DHT22;50545;56.064;26.178;2023-04-02T13:29:33;8.00;51.60
64226;DHT22;50545;56.064;26.178;2023-04-02T13:32:04;7.70;48.30
64226;DHT22;50545;56.064;26.178;2023-04-02T13:34:31;7.70;51.60
64226;DHT22;50545;56.064;26.178;2023-04-02T13:36:59;7.90;49.20
64226;DHT22;50545;56.064;26.178;2023-04-02T13:39:26;7.80;49.30
64226;DHT22;50545;56.064;26.178;2023-04-02T13:42:02;7.80;48.10
64226;DHT22;50545;56.064;26.178;2023-04-02T13:44:33;7.80;48.40
64226;DHT22;50545;56.064;26.178;2023-04-02T13:47:02;7.80;47.30
64226;DHT22;50545;56.064;26.178;2023-04-02T13:49:30;7.90;48.90
64226;DHT22;50545;56.064;26.178;2023-04-02T13:52:00;7.90;49.80
64226;DHT22;50545;56.064;26.178;2023-04-02T13:54:52;8.10;49.90
64226;DHT22;50545;56.064;26.178;2023-04-02T13:57:21;8.40;48.30
64226;DHT22;50545;56.064;26.178;2023-04-02T13:59:48;8.60;48.40
64226;DHT22;50545;56.064;26.178;2023-04-02T14:02:18;8.50;47.50
64226;DHT22;50545;56.064;26.178;2023-04-02T14:04:55;8.30;46.10
64226;DHT22;50545;56.064;26.178;2023-04-02T14:10:42;8.40;47.10
64226;DHT22;50545;56.064;26.178;2023-04-02T14:13:55;8.50;50.40
64226;DHT22;50545;56.064;26.178;2023-04-02T14:30:22;7.50;46.80
64226;DHT22;50545;56.064;26.178;2023-04-02T14:33:16;7.10;45.90
64226;DHT22;50545;56.064;26.178;2023-04-02T14:35:49;6.70;46.50
64226;DHT22;50545;56.064;26.178;2023-04-02T14:41:03;6.60;50.30
64226;DHT22;50545;56.064;26.178;2023-04-02T14:43:38;6.70;48.50
64226;DHT22;50545;56.064;26.178;2023-04-02T14:46:07;6.60;49.70
64226;DHT22;50545;56.064;26.178;2023-04-02T14:51:31;6.60;49.00
64226;DHT22;50545;56.064;26.178;2023-04-02T14:56:35;6.40;47.90
64226;DHT22;50545;56.064;26.178;2023-04-02T15:01:54;6.10;51.60
64226;DHT22;50545;56.064;26.178;2023-04-02T15:04:29;6.00;51.20
64226;DHT22;50545;56.064;26.178;2023-04-02T15:07:12;6.10;50.40
64226;DHT22;50545;56.064;26.178;2023-04-02T15:09:45;6.30;49.50
64226;DHT22;50545;56.064;26.178;2023-04-02T15:12:31;6.30;48.30
64226;DHT22;50545;56.064;26.178;2023-04-02T15:15:55;6.30;47.30
64226;DHT22;50545;56.064;26.178;2023-04-02T15:18:11;6.40;47.90
64226;DHT22;50545;56.064;26.178;2023-04-02T15:24:23;6.60;47.90
64226;DHT22;50545;56.064;26.178;2023-04-02T15:37:42;7.50;43.50
64226;DHT22;50545;56.064;26.178;2023-04-02T15:43:21;7.70;43.80
64226;DHT22;50545;56.064;26.178;2023-04-02T15:46:04;7.50;43.90
64226;DHT22;50545;56.064;26.178;2023-04-02T15:49:07;7.20;43.60
64226;DHT22;50545;56.064;26.178;2023-04-02T16:00:31;6.80;42.80
64226;DHT22;50545;56.064;26.178;2023-04-02T16:08:46;7.10;42.90
64226;DHT22;50545;56.064;26.178;2023-04-02T16:11:24;7.40;43.60
64226;DHT22;50545;56.064;26.178;2023-04-02T16:14:00;7.50;43.10
64226;DHT22;50545;56.064;26.178;2023-04-02T16:16:33;7.60;44.30
64226;DHT22;50545;56.064;26.178;2023-04-02T16:19:52;7.70;43.20
64226;DHT22;50545;56.064;26.178;2023-04-02T16:22:29;7.50;41.00
64226;DHT22;50545;56.064;26.178;2023-04-02T16:25:01;7.20;42.10
64226;DHT22;50545;56.064;26.178;2023-04-02T16:27:39;6.80;42.20
64226;DHT22;50545;56.064;26.178;2023-04-02T16:39:16;5.30;45.60
64226;DHT22;50545;56.064;26.178;2023-04-02T16:57:23;3.60;49.90
64226;DHT22;50545;56.064;26.178;2023-04-02T17:00:00;3.50;50.30
64226;DHT22;50545;56.064;26.178;2023-04-02T17:02:50;3.40;48.90
64226;DHT22;50545;56.064;26.178;2023-04-02T17:05:49;3.30;49.70
64226;DHT22;50545;56.064;26.178;2023-04-02T17:08:26;3.10;51.00
64226;DHT22;50545;56.064;26.178;2023-04-02T17:11:19;3.00;52.30
64226;DHT22;50545;56.064;26.178;2023-04-02T17:13:52;2.90;51.70
64226;DHT22;50545;56.064;26.178;2023-04-02T17:16:31;2.80;52.40
64226;DHT22;50545;56.064;26.178;2023-04-02T17:19:04;2.70;51.40
64226;DHT22;50545;56.064;26.178;2023-04-02T17:21:34;2.60;51.20
64226;DHT22;50545;56.064;26.178;2023-04-02T17:24:24;2.50;52.60
64226;DHT22;50545;56.064;26.178;2023-04-02T17:29:47;2.30;53.00
64226;DHT22;50545;56.064;26.178;2023-04-02T17:32:27;2.30;52.10
64226;DHT22;50545;56.064;26.178;2023-04-02T17:34:56;2.20;51.60
64226;DHT22;50545;56.064;26.178;2023-04-02T17:37:34;2.10;51.90
64226;DHT22;50545;56.064;26.178;2023-04-02T17:43:09;2.00;54.00
64226;DHT22;50545;56.064;26.178;2023-04-02T17:45:53;2.00;52.80
64226;DHT22;50545;56.064;26.178;2023-04-02T17:51:16;1.80;52.30
64226;DHT22;50545;56.064;26.178;2023-04-02T18:06:03;1.60;55.40
64226;DHT22;50545;56.064;26.178;2023-04-02T18:11:29;1.50;55.40
64226;DHT22;50545;56.064;26.178;2023-04-02T18:20:25;1.40;55.40
64226;DHT22;50545;56.064;26.178;2023-04-02T18:29:20;1.20;58.10
64226;DHT22;50545;56.064;26.178;2023-04-02T18:34:26;1.10;58.80
64226;DHT22;50545;56.064;26.178;2023-04-02T18:51:23;0.90;60.60
64226;DHT22;50545;56.064;26.178;2023-04-02T18:56:26;0.80;60.80
64226;DHT22;50545;56.064;26.178;2023-04-02T19:01:51;0.80;59.70
64226;DHT22;50545;56.064;26.178;2023-04-02T19:04:30;0.70;59.00
64226;DHT22;50545;56.064;26.178;2023-04-02T19:07:11;0.70;59.00
64226;DHT22;50545;56.064;26.178;2023-04-02T19:09:44;0.70;58.90
64226;DHT22;50545;56.064;26.178;2023-04-02T19:12:19;0.70;59.70
64226;DHT22;50545;56.064;26.178;2023-04-02T19:14:47;0.70;59.90
64226;DHT22;50545;56.064;26.178;2023-04-02T19:17:40;0.60;59.90
64226;DHT22;50545;56.064;26.178;2023-04-02T19:20:18;0.60;60.50
64226;DHT22;50545;56.064;26.178;2023-04-02T19:23:15;0.50;59.50
64226;DHT22;50545;56.064;26.178;2023-04-02T19:26:00;0.50;62.00
64226;DHT22;50545;56.064;26.178;2023-04-02T19:34:28;0.40;61.90
64226;DHT22;50545;56.064;26.178;2023-04-02T19:42:44;0.20;63.00
64226;DHT22;50545;56.064;26.178;2023-04-02T19:45:38;0.20;63.40
64226;DHT22;50545;56.064;26.178;2023-04-02T19:48:21;0.20;63.90
64226;DHT22;50545;56.064;26.178;2023-04-02T19:50:50;0.20;64.00
64226;DHT22;50545;56.064;26.178;2023-04-02T19:53:18;0.10;64.40
64226;DHT22;50545;56.064;26.178;2023-04-02T19:55:45;0.10;65.00
64226;DHT22;50545;56.064;26.178;2023-04-02T19:58:34;0.10;64.80
64226;DHT22;50545;56.064;26.178;2023-04-02T20:01:01;0.00;66.50
64226;DHT22;50545;56.064;26.178;2023-04-02T20:03:29;0.00;67.80
64226;DHT22;50545;56.064;26.178;2023-04-02T20:05:57;0.00;67.30
64226;DHT22;50545;56.064;26.178;2023-04-02T20:08:26;0.00;68.80
64226;DHT22;50545;56.064;26.178;2023-04-02T20:10:55;-0.10;69.20
64226;DHT22;50545;56.064;26.178;2023-04-02T20:13:24;-0.10;70.20
64226;DHT22;50545;56.064;26.178;2023-04-02T20:15:51;-0.10;71.00
64226;DHT22;50545;56.064;26.178;2023-04-02T20:18:19;-0.20;71.50
64226;DHT22;50545;56.064;26.178;2023-04-02T20:20:47;-0.20;73.00
64226;DHT22;50545;56.064;26.178;2023-04-02T20:23:15;-0.20;73.00
64226;DHT22;50545;56.064;26.178;2023-04-02T20:25:51;-0.20;72.70
64226;DHT22;50545;56.064;26.178;2023-04-02T20:28:19;-0.30;73.10
64226;DHT22;50545;56.064;26.178;2023-04-02T20:30:47;-0.30;73.40
64226;DHT22;50545;56.064;26.178;2023-04-02T20:33:21;-0.30;73.70
64226;DHT22;50545;56.064;26.178;2023-04-02T20:35:50;-0.30;74.90
64226;DHT22;50545;56.064;26.178;2023-04-02T20:38:18;-0.30;76.20
64226;DHT22;50545;56.064;26.178;2023-04-02T20:40:45;-0.30;76.40
64226;DHT22;50545;56.064;26.178;2023-04-02T20:43:18;-0.30;76.50
64226;DHT22;50545;56.064;26.178;2023-04-02T20:45:56;-0.40;77.30
64226;DHT22;50545;56.064;26.178;2023-04-02T20:48:25;-0.40;78.00
64226;DHT22;50545;56.064;26.178;2023-04-02T20:50:53;-0.40;79.10
64226;DHT22;50545;56.064;26.178;2023-04-02T20:53:20;-0.40;80.10
64226;DHT22;50545;56.064;26.178;2023-04-02T20:55:47;-0.50;80.00
64226;DHT22;50545;56.064;26.178;2023-04-02T20:58:16;-0.50;80.30
64226;DHT22;50545;56.064;26.178;2023-04-02T21:00:44;-0.50;81.90
64226;DHT22;50545;56.064;26.178;2023-04-02T21:03:11;-0.50;81.90